createdAt,value
2019-06-26T00:01:05.045Z,39.23
2019-06-26T00:03:33.427Z,39.90
2019-06-26T00:06:01.780Z,45.13
2019-06-26T00:08:30.074Z,48.63
2019-06-26T00:10:58.436Z,49.20
2019-06-26T00:13:27.147Z,49.37
2019-06-26T00:15:55.615Z,46.53
2019-06-26T00:18:23.972Z,52.07
2019-06-26T00:20:52.271Z,44.10
2019-06-26T00:23:20.631Z,44.57
2019-06-26T00:25:49.005Z,42.40
2019-06-26T00:28:17.288Z,42.43
2019-06-26T00:30:45.643Z,44.50
2019-06-26T00:33:13.938Z,40.03
2019-06-26T00:35:42.229Z,40.77
2019-06-26T00:38:10.651Z,33.93
2019-06-26T00:40:39.058Z,36.67
2019-06-26T00:43:07.421Z,30.23
2019-06-26T00:45:35.707Z,38.20
2019-06-26T00:48:04.021Z,37.97
2019-06-26T00:50:32.311Z,35.53
2019-06-26T00:53:00.665Z,38.07
2019-06-26T00:55:29.085Z,37.63
2019-06-26T00:57:57.381Z,33.67
2019-06-26T01:00:37.879Z,35.10
2019-06-26T01:03:06.162Z,33.10
2019-06-26T01:05:34.462Z,31.60
2019-06-26T01:08:02.746Z,40.47
2019-06-26T01:10:31.117Z,37.50
2019-06-26T01:12:59.394Z,43.93
2019-06-26T01:15:27.680Z,43.87
2019-06-26T01:17:55.985Z,46.63
2019-06-26T01:20:24.435Z,45.20
2019-06-26T01:22:52.735Z,45.83
2019-06-26T01:25:21.021Z,49.03
2019-06-26T01:27:49.318Z,44.93
2019-06-26T01:30:17.606Z,44.63
2019-06-26T01:32:45.939Z,44.47
2019-06-26T01:35:14.265Z,40.37
2019-06-26T01:37:42.541Z,46.17
2019-06-26T01:40:10.972Z,48.20
2019-06-26T01:42:39.247Z,48.73
2019-06-26T01:45:07.582Z,40.40
2019-06-26T01:47:35.911Z,42.07
2019-06-26T01:50:05.655Z,40.10
2019-06-26T01:52:33.948Z,43.17
2019-06-26T01:55:02.441Z,36.00
2019-06-26T01:57:31.072Z,39.10
2019-06-26T01:59:59.550Z,38.97
2019-06-26T02:02:27.977Z,42.87
2019-06-26T02:04:56.310Z,50.40
2019-06-26T02:07:24.609Z,42.00
2019-06-26T02:09:52.932Z,45.63
2019-06-26T02:12:21.241Z,46.40
2019-06-26T02:14:49.530Z,39.37
2019-06-26T02:17:17.833Z,44.17
2019-06-26T02:19:46.223Z,37.77
2019-06-26T02:22:14.571Z,37.93
2019-06-26T02:24:43.022Z,36.00
2019-06-26T02:27:11.360Z,38.83
2019-06-26T02:29:39.830Z,38.10
2019-06-26T02:32:08.206Z,48.33
2019-06-26T02:34:36.627Z,48.33
2019-06-26T02:37:04.978Z,44.90
2019-06-26T02:39:33.394Z,48.07
2019-06-26T02:42:01.747Z,44.73
2019-06-26T02:44:50.920Z,42.40
2019-06-26T02:47:17.699Z,43.37
2019-06-26T02:49:30.078Z,46.87
2019-06-26T02:51:58.460Z,52.97
2019-06-26T02:54:26.819Z,46.17
2019-06-26T02:56:55.191Z,46.87
2019-06-26T02:59:23.546Z,44.37
2019-06-26T03:01:51.842Z,50.07
2019-06-26T03:04:20.193Z,56.73
2019-06-26T03:06:48.519Z,53.13
2019-06-26T03:09:16.803Z,53.87
2019-06-26T03:11:45.105Z,51.70
2019-06-26T03:14:13.407Z,53.57
2019-06-26T03:16:42.239Z,50.93
2019-06-26T03:19:10.530Z,56.50
2019-06-26T03:21:38.816Z,51.87
2019-06-26T03:24:07.209Z,46.77
2019-06-26T03:26:35.657Z,39.63
2019-06-26T03:29:04.048Z,34.93
2019-06-26T03:31:32.329Z,37.20
2019-06-26T03:34:00.686Z,33.73
2019-06-26T03:36:29.089Z,34.50
2019-06-26T03:38:57.380Z,37.83
2019-06-26T03:41:25.678Z,32.03
2019-06-26T03:43:53.971Z,37.50
2019-06-26T03:46:22.359Z,41.23
2019-06-26T03:48:50.730Z,32.43
2019-06-26T03:51:19.064Z,35.30
2019-06-26T03:53:47.348Z,38.07
2019-06-26T03:56:16.675Z,39.70
2019-06-26T03:58:45.009Z,42.07
2019-06-26T04:01:13.293Z,44.50
2019-06-26T04:03:41.670Z,47.60
2019-06-26T04:06:10.020Z,54.53
2019-06-26T04:08:38.332Z,44.43
2019-06-26T04:11:06.612Z,47.67
2019-06-26T04:13:34.935Z,46.20
2019-06-26T04:16:03.274Z,39.40
2019-06-26T04:18:31.639Z,36.40
2019-06-26T04:21:11.916Z,31.13
2019-06-26T04:23:40.194Z,37.77
2019-06-26T04:26:08.830Z,38.23
2019-06-26T04:28:37.102Z,41.07
2019-06-26T04:31:05.422Z,37.47
2019-06-26T04:33:33.721Z,33.50
2019-06-26T04:36:02.148Z,33.30
2019-06-26T04:38:30.519Z,31.30
2019-06-26T04:40:58.799Z,35.00
2019-06-26T04:43:27.143Z,40.20
2019-06-26T04:45:58.447Z,34.90
2019-06-26T04:48:25.520Z,33.17
2019-06-26T04:50:53.816Z,28.60
2019-06-26T04:53:22.198Z,31.30
2019-06-26T04:55:50.483Z,35.53
2019-06-26T04:58:18.800Z,32.13
2019-06-26T05:00:47.569Z,29.70
2019-06-26T05:03:15.941Z,29.33
2019-06-26T05:05:44.611Z,28.37
2019-06-26T05:08:12.964Z,29.43
2019-06-26T05:10:41.332Z,26.07
2019-06-26T05:13:09.679Z,33.60
2019-06-26T05:15:37.974Z,27.10
2019-06-26T05:18:06.362Z,30.23
2019-06-26T05:20:34.755Z,25.33
2019-06-26T05:23:03.187Z,28.30
2019-06-26T05:25:31.469Z,25.27
2019-06-26T05:27:59.765Z,27.40
2019-06-26T05:30:28.047Z,26.30
2019-06-26T05:32:56.341Z,26.30
2019-06-26T05:35:24.619Z,29.83
2019-06-26T05:37:52.920Z,28.83
2019-06-26T05:40:21.228Z,23.90
2019-06-26T05:42:49.727Z,25.17
2019-06-26T05:45:18.023Z,21.30
2019-06-26T05:47:46.310Z,26.33
2019-06-26T05:50:14.683Z,24.90
2019-06-26T05:52:43.366Z,25.23
2019-06-26T05:55:11.830Z,24.90
2019-06-26T05:57:41.987Z,25.23
2019-06-26T06:00:10.511Z,24.43
2019-06-26T06:02:38.888Z,27.97
2019-06-26T06:05:08.100Z,25.97
2019-06-26T06:07:37.232Z,28.63
2019-06-26T06:10:05.927Z,28.63
2019-06-26T06:12:34.268Z,31.00
2019-06-26T06:15:03.181Z,33.10
2019-06-26T06:17:31.606Z,30.80
2019-06-26T06:19:59.928Z,27.10
2019-06-26T06:22:28.305Z,27.90
2019-06-26T06:24:56.658Z,26.60
2019-06-26T06:27:25.009Z,26.17
2019-06-26T06:29:53.300Z,26.77
2019-06-26T06:32:21.675Z,25.83
2019-06-26T06:34:50.074Z,23.70
2019-06-26T06:37:18.376Z,23.97
2019-06-26T06:39:46.731Z,25.20
2019-06-26T06:42:15.117Z,27.57
2019-06-26T06:44:43.391Z,26.63
2019-06-26T06:47:11.667Z,28.40
2019-06-26T06:49:40.163Z,26.47
2019-06-26T06:52:08.439Z,30.57
2019-06-26T06:54:36.810Z,25.93
2019-06-26T06:57:05.089Z,28.27
2019-06-26T06:59:33.380Z,29.63
2019-06-26T07:02:01.747Z,30.33
2019-06-26T07:04:30.066Z,27.37
2019-06-26T07:06:58.858Z,26.70
2019-06-26T07:09:27.313Z,26.13
2019-06-26T07:11:55.785Z,27.33
2019-06-26T07:14:24.050Z,24.03
2019-06-26T07:16:52.356Z,24.87
2019-06-26T07:19:20.637Z,24.70
2019-06-26T07:21:48.934Z,24.33
2019-06-26T07:24:17.242Z,22.80
2019-06-26T07:26:45.655Z,22.30
2019-06-26T07:29:14.005Z,24.33
2019-06-26T07:31:42.366Z,23.53
2019-06-26T07:34:10.734Z,20.67
2019-06-26T07:36:39.017Z,21.70
2019-06-26T07:39:07.468Z,21.60
2019-06-26T07:41:36.022Z,18.00
2019-06-26T07:44:04.391Z,17.73
2019-06-26T07:46:32.742Z,19.63
2019-06-26T07:49:01.048Z,19.63
2019-06-26T07:51:29.420Z,21.07
2019-06-26T07:53:57.794Z,22.20
2019-06-26T07:56:26.168Z,22.57
2019-06-26T07:58:54.517Z,22.40
2019-06-26T08:01:22.900Z,20.30
2019-06-26T08:03:51.302Z,20.20
2019-06-26T08:06:19.603Z,20.30
2019-06-26T08:08:47.893Z,22.87
2019-06-26T08:11:16.275Z,19.70
2019-06-26T08:13:44.636Z,22.17
2019-06-26T08:16:12.990Z,19.93
2019-06-26T08:18:41.370Z,20.77
2019-06-26T08:21:12.457Z,20.20
2019-06-26T08:23:39.771Z,20.07
2019-06-26T08:26:08.052Z,20.50
2019-06-26T08:28:36.425Z,20.80
2019-06-26T08:31:04.786Z,21.20
2019-06-26T08:33:33.162Z,21.57
2019-06-26T08:36:01.474Z,22.07
2019-06-26T08:38:29.827Z,20.73
2019-06-26T08:40:58.200Z,20.40
2019-06-26T08:43:26.594Z,20.77
2019-06-26T08:45:54.953Z,19.33
2019-06-26T08:48:39.078Z,20.23
2019-06-26T08:50:53.351Z,19.20
2019-06-26T08:53:21.651Z,20.03
2019-06-26T08:55:49.954Z,18.20
2019-06-26T08:58:18.244Z,19.17
2019-06-26T09:00:46.577Z,19.17
2019-06-26T09:03:14.958Z,18.93
2019-06-26T09:05:47.971Z,16.73
2019-06-26T09:08:13.569Z,16.70
2019-06-26T09:10:44.828Z,18.97
2019-06-26T09:13:11.965Z,18.27
2019-06-26T09:15:40.258Z,17.63
2019-06-26T09:18:08.627Z,19.43
2019-06-26T09:20:40.667Z,21.27
2019-06-26T09:23:09.370Z,19.40
2019-06-26T09:25:37.749Z,20.30
2019-06-26T09:28:06.078Z,19.07
2019-06-26T09:30:34.363Z,19.40
2019-06-26T09:33:02.674Z,21.20
2019-06-26T09:35:32.596Z,22.30
2019-06-26T09:38:00.914Z,21.37
2019-06-26T09:40:31.752Z,18.70
2019-06-26T09:42:59.260Z,19.57
2019-06-26T09:45:27.645Z,19.73
2019-06-26T09:47:55.957Z,18.57
2019-06-26T09:50:24.338Z,18.23
2019-06-26T09:52:52.689Z,16.97
2019-06-26T09:55:21.078Z,18.13
2019-06-26T09:57:49.455Z,17.10
2019-06-26T10:00:20.549Z,18.43
2019-06-26T10:02:48.955Z,20.07
2019-06-26T10:05:17.528Z,20.07
2019-06-26T10:07:45.911Z,17.73
2019-06-26T10:10:14.340Z,17.37
2019-06-26T10:12:42.689Z,19.90
2019-06-26T10:15:10.972Z,18.43
2019-06-26T10:17:39.279Z,16.67
2019-06-26T10:20:08.672Z,15.23
2019-06-26T10:22:37.047Z,15.67
2019-06-26T10:25:05.969Z,15.20
2019-06-26T10:27:34.419Z,13.93
2019-06-26T10:30:02.840Z,15.63
2019-06-26T10:32:31.696Z,16.70
2019-06-26T10:34:59.992Z,17.23
2019-06-26T10:37:28.338Z,17.13
2019-06-26T10:39:56.639Z,16.20
2019-06-26T10:42:24.976Z,15.53
2019-06-26T10:44:53.366Z,15.57
2019-06-26T10:47:21.735Z,14.93
2019-06-26T10:49:50.179Z,17.93
2019-06-26T10:52:18.543Z,19.17
2019-06-26T10:54:46.836Z,17.70
2019-06-26T10:57:15.114Z,18.20
2019-06-26T10:59:43.499Z,17.20
2019-06-26T11:02:11.830Z,17.27
2019-06-26T11:04:40.160Z,16.00
2019-06-26T11:07:08.521Z,16.57
2019-06-26T11:09:36.899Z,16.40
2019-06-26T11:12:09.447Z,18.37
2019-06-26T11:14:37.872Z,19.13
2019-06-26T11:17:06.172Z,18.43
2019-06-26T11:19:43.718Z,19.73
2019-06-26T11:22:04.594Z,18.60
2019-06-26T11:24:32.947Z,16.83
2019-06-26T11:27:01.340Z,17.57
2019-06-26T11:29:29.720Z,17.80
2019-06-26T11:31:58.073Z,18.87
2019-06-26T11:34:26.547Z,16.87
2019-06-26T11:37:03.922Z,16.93
2019-06-26T11:39:25.070Z,16.10
2019-06-26T11:41:53.472Z,18.07
2019-06-26T11:44:21.868Z,19.07
2019-06-26T11:46:50.194Z,18.90
2019-06-26T11:49:18.608Z,18.67
2019-06-26T11:51:52.868Z,17.60
2019-06-26T11:54:27.178Z,19.87
2019-06-26T11:56:55.502Z,17.37
2019-06-26T11:59:27.128Z,20.37
2019-06-26T12:01:55.773Z,18.20
2019-06-26T12:04:24.134Z,18.73
2019-06-26T12:06:52.505Z,19.63
2019-06-26T12:09:23.772Z,21.27
2019-06-26T12:11:52.105Z,20.13
2019-06-26T12:14:20.524Z,21.50
2019-06-26T12:16:48.817Z,20.43
2019-06-26T12:19:19.894Z,21.43
2019-06-26T12:21:47.193Z,20.27
2019-06-26T12:24:15.568Z,22.17
2019-06-26T12:26:43.933Z,21.13
2019-06-26T12:29:12.306Z,21.30
2019-06-26T12:31:40.696Z,20.87
2019-06-26T12:34:09.114Z,19.70
2019-06-26T12:36:37.647Z,20.50
2019-06-26T12:39:07.390Z,18.23
2019-06-26T12:41:35.664Z,23.73
2019-06-26T12:44:04.054Z,17.67
2019-06-26T12:46:32.334Z,17.97
2019-06-26T12:49:00.855Z,19.87
2019-06-26T12:51:29.146Z,17.53
2019-06-26T12:53:58.497Z,18.70
2019-06-26T12:56:27.127Z,18.23
2019-06-26T12:58:58.851Z,17.87
2019-06-26T13:01:25.511Z,16.30
2019-06-26T13:03:54.030Z,17.13
2019-06-26T13:06:22.420Z,19.30
2019-06-26T13:08:50.701Z,22.13
2019-06-26T13:11:19.074Z,17.70
2019-06-26T13:14:01.357Z,17.40
2019-06-26T13:16:17.593Z,17.73
2019-06-26T13:18:45.888Z,17.20
2019-06-26T13:21:14.230Z,18.40
2019-06-26T13:23:42.593Z,18.27
2019-06-26T13:26:10.992Z,15.00
2019-06-26T13:28:39.401Z,16.60
2019-06-26T13:31:07.886Z,16.73
2019-06-26T13:33:36.292Z,16.80
2019-06-26T13:36:04.693Z,18.83
2019-06-26T13:38:33.066Z,17.47
2019-06-26T13:41:01.427Z,19.63
2019-06-26T13:43:29.819Z,14.43
2019-06-26T13:45:58.946Z,16.30
2019-06-26T13:48:27.449Z,16.40
2019-06-26T13:51:08.880Z,15.63
2019-06-26T13:53:27.939Z,15.40
2019-06-26T13:55:56.721Z,20.37
2019-06-26T13:58:25.030Z,16.57
2019-06-26T14:00:53.326Z,16.27
2019-06-26T14:03:21.610Z,20.13
2019-06-26T14:05:49.912Z,18.33
2019-06-26T14:08:18.275Z,17.87
2019-06-26T14:10:46.636Z,21.40
2019-06-26T14:13:14.924Z,18.53
2019-06-26T14:15:43.222Z,15.80
2019-06-26T14:18:11.532Z,15.17
2019-06-26T14:20:39.898Z,14.23
2019-06-26T14:23:08.244Z,16.93
2019-06-26T14:25:37.113Z,18.60
2019-06-26T14:28:05.401Z,17.77
2019-06-26T14:30:34.574Z,17.97
2019-06-26T14:33:02.871Z,14.13
2019-06-26T14:35:31.157Z,17.97
2019-06-26T14:37:59.447Z,14.33
2019-06-26T14:40:27.731Z,14.63
2019-06-26T14:42:56.029Z,14.27
2019-06-26T14:45:24.312Z,15.87
2019-06-26T14:47:52.702Z,15.37
2019-06-26T14:50:21.117Z,14.50
2019-06-26T14:52:49.520Z,16.97
2019-06-26T14:55:17.822Z,21.50
2019-06-26T14:57:46.173Z,18.20
2019-06-26T15:00:14.457Z,16.90
2019-06-26T15:02:42.744Z,14.93
2019-06-26T15:05:11.328Z,17.10
2019-06-26T15:07:39.610Z,15.67
2019-06-26T15:10:08.339Z,18.90
2019-06-26T15:12:36.653Z,17.93
2019-06-26T15:15:05.525Z,16.57
2019-06-26T15:17:33.973Z,16.23
2019-06-26T15:20:02.408Z,16.90
2019-06-26T15:22:30.853Z,15.87
2019-06-26T15:24:59.236Z,11.77
2019-06-26T15:27:27.592Z,13.90
2019-06-26T15:29:55.953Z,11.77
2019-06-26T15:32:24.249Z,9.77
2019-06-26T15:34:52.586Z,9.80
2019-06-26T15:37:20.972Z,12.47
2019-06-26T15:39:49.253Z,12.20
2019-06-26T15:42:17.794Z,13.70
2019-06-26T15:44:46.093Z,10.93
2019-06-26T15:47:14.377Z,9.70
2019-06-26T15:49:42.760Z,11.40
2019-06-26T15:52:15.362Z,7.13
2019-06-26T15:54:41.290Z,6.80
2019-06-26T15:57:09.568Z,9.27
2019-06-26T15:59:37.951Z,9.47
2019-06-26T16:02:06.240Z,8.33
2019-06-26T16:04:35.343Z,8.50
2019-06-26T16:07:03.769Z,6.90
2019-06-26T16:09:32.082Z,9.47
2019-06-26T16:12:00.419Z,7.80
2019-06-26T16:14:28.771Z,6.17
2019-06-26T16:16:58.786Z,6.43
2019-06-26T16:19:27.062Z,9.43
2019-06-26T16:21:55.508Z,8.07
2019-06-26T16:24:23.905Z,7.23
2019-06-26T16:26:52.398Z,9.23
2019-06-26T16:29:20.753Z,9.40
2019-06-26T16:31:49.092Z,6.23
2019-06-26T16:34:17.391Z,6.17
2019-06-26T16:36:45.788Z,4.27
2019-06-26T16:39:14.156Z,7.53
2019-06-26T16:41:42.497Z,7.83
2019-06-26T16:44:10.793Z,7.93
2019-06-26T16:46:39.215Z,8.33
2019-06-26T16:49:07.605Z,8.93
2019-06-26T16:51:36.289Z,8.30
2019-06-26T16:54:04.564Z,7.30
2019-06-26T16:56:32.905Z,7.43
2019-06-26T16:59:01.276Z,9.43
2019-06-26T17:01:29.648Z,6.83
2019-06-26T17:03:57.924Z,7.80
2019-06-26T17:06:26.271Z,10.27
2019-06-26T17:08:54.578Z,7.10
2019-06-26T17:11:22.926Z,6.03
2019-06-26T17:13:51.308Z,7.77
2019-06-26T17:16:19.682Z,9.47
2019-06-26T17:18:48.067Z,9.10
2019-06-26T17:21:16.439Z,7.77
2019-06-26T17:23:44.855Z,8.53
2019-06-26T17:26:13.237Z,10.87
2019-06-26T17:28:41.632Z,9.57
2019-06-26T17:31:09.975Z,8.90
2019-06-26T17:33:38.269Z,6.27
2019-06-26T17:36:06.633Z,7.37
2019-06-26T17:38:34.917Z,9.17
2019-06-26T17:41:03.228Z,10.90
2019-06-26T17:43:31.579Z,9.57
2019-06-26T17:45:59.931Z,7.13
2019-06-26T17:48:28.239Z,6.97
2019-06-26T17:50:56.579Z,9.23
2019-06-26T17:53:24.903Z,7.70
2019-06-26T17:55:53.248Z,9.97
2019-06-26T17:58:24.489Z,5.90
2019-06-26T18:00:51.545Z,8.80
2019-06-26T18:03:19.847Z,10.50
2019-06-26T18:05:48.202Z,7.47
2019-06-26T18:08:16.484Z,7.07
2019-06-26T18:10:44.784Z,7.23
2019-06-26T18:13:13.059Z,7.33
2019-06-26T18:15:41.432Z,8.63
2019-06-26T18:18:09.789Z,7.77
2019-06-26T18:20:38.165Z,7.10
2019-06-26T18:23:07.890Z,7.03
2019-06-26T18:25:36.492Z,10.43
2019-06-26T18:28:04.770Z,7.93
2019-06-26T18:30:33.138Z,7.43
2019-06-26T18:33:01.428Z,7.57
2019-06-26T18:35:29.709Z,6.27
2019-06-26T18:37:58.014Z,12.30
2019-06-26T18:40:26.355Z,7.77
2019-06-26T18:42:54.643Z,7.30
2019-06-26T18:45:23.008Z,11.07
2019-06-26T18:47:51.412Z,7.07
2019-06-26T18:50:19.771Z,10.40
2019-06-26T18:52:48.130Z,6.63
2019-06-26T18:55:16.504Z,5.80
2019-06-26T18:57:44.799Z,8.90
2019-06-26T19:00:13.256Z,9.13
2019-06-26T19:02:41.742Z,4.83
2019-06-26T19:05:10.127Z,9.70
2019-06-26T19:07:38.475Z,7.47
2019-06-26T19:10:08.114Z,7.97
2019-06-26T19:12:36.559Z,8.67
2019-06-26T19:15:05.720Z,8.93
2019-06-26T19:17:33.994Z,7.70
2019-06-26T19:20:02.372Z,5.03
2019-06-26T19:22:30.660Z,7.07
2019-06-26T19:24:59.003Z,6.03
2019-06-26T19:27:27.373Z,8.00
2019-06-26T19:29:55.735Z,9.23
2019-06-26T19:32:24.111Z,6.93
2019-06-26T19:34:52.462Z,9.47
2019-06-26T19:37:21.016Z,9.23
2019-06-26T19:39:49.385Z,8.20
2019-06-26T19:42:17.741Z,7.60
2019-06-26T19:44:46.105Z,6.63
2019-06-26T19:47:14.410Z,6.27
2019-06-26T19:49:42.784Z,7.83
2019-06-26T19:52:11.220Z,6.43
2019-06-26T19:54:39.620Z,6.20
2019-06-26T19:57:07.957Z,6.30
2019-06-26T19:59:36.894Z,6.37
2019-06-26T20:02:05.262Z,9.27
2019-06-26T20:04:33.603Z,8.47
2019-06-26T20:07:01.901Z,10.90
2019-06-26T20:09:30.271Z,11.03
2019-06-26T20:11:58.668Z,8.80
2019-06-26T20:14:27.023Z,11.33
2019-06-26T20:16:55.405Z,10.77
2019-06-26T20:19:23.766Z,8.27
2019-06-26T20:21:52.129Z,9.77
2019-06-26T20:24:20.602Z,8.63
2019-06-26T20:26:48.895Z,11.30
2019-06-26T20:29:17.307Z,7.97
2019-06-26T20:31:45.716Z,8.87
2019-06-26T20:34:14.060Z,8.97
2019-06-26T20:36:42.450Z,10.53
2019-06-26T20:39:10.729Z,9.50
2019-06-26T20:41:39.080Z,6.57
2019-06-26T20:44:07.377Z,10.13
2019-06-26T20:46:35.665Z,9.40
2019-06-26T20:49:04.031Z,7.10
2019-06-26T20:51:32.310Z,9.60
2019-06-26T20:54:00.599Z,9.53
2019-06-26T20:56:29.002Z,11.17
2019-06-26T20:58:57.352Z,7.93
2019-06-26T21:01:25.699Z,9.10
2019-06-26T21:03:53.997Z,6.67
2019-06-26T21:06:22.329Z,9.10
2019-06-26T21:08:50.652Z,9.27
2019-06-26T21:11:18.928Z,8.60
2019-06-26T21:13:47.205Z,9.87
2019-06-26T21:16:15.578Z,13.50
2019-06-26T21:18:43.935Z,8.60
2019-06-26T21:21:12.313Z,7.83
2019-06-26T21:23:40.662Z,9.13
2019-06-26T21:26:09.033Z,8.73
2019-06-26T21:28:37.314Z,10.43
2019-06-26T21:31:05.599Z,9.83
2019-06-26T21:33:34.064Z,10.67
2019-06-26T21:36:02.428Z,10.30
2019-06-26T21:38:30.727Z,11.03
2019-06-26T21:40:59.007Z,11.20
2019-06-26T21:43:27.298Z,10.30
2019-06-26T21:45:55.584Z,7.93
2019-06-26T21:48:23.956Z,11.50
2019-06-26T21:50:52.304Z,8.77
2019-06-26T21:53:20.630Z,7.53
2019-06-26T21:55:49.054Z,12.07
2019-06-26T21:58:17.365Z,13.17
2019-06-26T22:00:45.798Z,11.73
2019-06-26T22:03:14.421Z,10.37
2019-06-26T22:05:42.801Z,10.07
2019-06-26T22:08:11.168Z,8.70
2019-06-26T22:10:39.547Z,13.00
2019-06-26T22:13:07.897Z,10.73
2019-06-26T22:15:36.210Z,12.53
2019-06-26T22:18:04.581Z,9.47
2019-06-26T22:20:32.962Z,9.30
2019-06-26T22:23:01.277Z,7.73
2019-06-26T22:25:29.624Z,8.80
2019-06-26T22:27:58.019Z,12.80
2019-06-26T22:30:26.401Z,14.97
2019-06-26T22:32:54.782Z,10.30
2019-06-26T22:35:23.142Z,8.13
2019-06-26T22:37:51.535Z,9.80
2019-06-26T22:40:19.887Z,11.77
2019-06-26T22:42:48.202Z,12.63
2019-06-26T22:45:16.477Z,6.47
2019-06-26T22:47:44.836Z,12.70
2019-06-26T22:50:13.203Z,14.80
2019-06-26T22:52:41.479Z,9.33
2019-06-26T22:55:09.783Z,8.10
2019-06-26T22:57:38.135Z,10.33
2019-06-26T23:00:08.347Z,11.17
2019-06-26T23:02:36.689Z,8.20
2019-06-26T23:05:06.185Z,9.60
2019-06-26T23:07:34.533Z,9.47
2019-06-26T23:10:02.995Z,12.60
2019-06-26T23:12:31.361Z,10.77
2019-06-26T23:14:59.650Z,9.30
2019-06-26T23:17:28.035Z,10.67
2019-06-26T23:19:56.394Z,9.83
2019-06-26T23:22:24.770Z,8.00
2019-06-26T23:24:53.126Z,7.97
2019-06-26T23:27:21.442Z,7.43
2019-06-26T23:29:49.791Z,8.00
2019-06-26T23:32:18.164Z,12.50
2019-06-26T23:34:46.446Z,11.00
2019-06-26T23:37:14.746Z,8.80
2019-06-26T23:39:43.040Z,10.57
2019-06-26T23:42:11.354Z,9.13
2019-06-26T23:44:39.630Z,11.37
2019-06-26T23:47:07.914Z,9.23
2019-06-26T23:49:36.295Z,9.00
2019-06-26T23:52:04.644Z,11.60
2019-06-26T23:54:32.947Z,6.57
2019-06-26T23:57:01.226Z,11.07
2019-06-26T23:59:29.556Z,9.60
